Kwajalein/Bucholz, Marshall Islands
Current Conditions -  °F | °C
As of 9:00 PM on Saturday 25 Oct 2014 (Local Time) from PKWA Reporting Station
Clear Clear  
Wind Chill: 82°   Ceiling: Unl
Heat Index: 87°   Visibility: 10mi
Dew Point: 73°   Wind: 8mph
Humidity: 74%   Direction: 60°ENE
Pressure: 29.89"   Gusts: NA
Location:  8.73°N, 167.73°E
Report Text: PKWA 250900Z AUTO 06007KT 10SM CLR 28/23 A2989 RMK AO2 T02780228
Loading
Personal Weather Stations






























Interactive Weather Map New forecast layout! Learn more

10-Day Weather Forecast

Advertisements
Track Severe Weather on mobile